Latest Weather Forecast - Wednesday 15th January 2020 (6am)

Forecast Period:  6:00 am 15th January 2020 to 12:00 Noon  15th January 2020
Synopsis: weak unstable conditions are affecting the islands
Forecast: Fair to occasionally cloudy and breezy with some scattered showers

Weather 
Advisory/Warning:

None

Winds: ENE - E at 30 - 40 km/h ( 19 - 25 mph )
Sea Conditions:

Moderate to rough in open water; northeasterly swells (2.0 - 3.0m)

Marine 
Advisory/Warning:

A High-Surf Advisory and a Small-Craft Warning have been discontinued as of 6 am this morning…However, a small craft advisory is in effect for above normal sea swells and sea bathers should still exercise caution.

Upcoming Tides:
High: 09:01 am 11:04 pm  
Low: **** 04:39 pm

Aviation WX

[Source: ADDS]
METAR
TVSA 080500Z 0806/0906 10010KT 9999 SCT020 TAF
TVSA 080500Z 0806/0906 10010KT 9999 SCT020 =
SR / SS: 09:55 / 22:16 UTC (Sunrise Sunset 2020-04-08)